BAW688 EGLL-LIMF
Flight info
| Callsign | BAW688 |
|---|---|
| Flight time | N/A |
| Altitude | 37000 |
| Route | MAXIT Y803 MID UL612 OGULO DCT VEROB |
| Aircraft | A320/M-SDE3FGHIRWY/LB1 |
Departure
| Time | 2026-05-04 07:49 |
|---|---|
| Airport | London Heathrow Airport (EGLL) |
Arrival
| Time | N/A |
|---|---|
| Airport | Turin Airport (LIMF) |
| Time | Latitude | Longitude | Altitude | Speed | Heading |
|---|---|---|---|---|---|
| 2026-05-04 07:12 | 51.47361 | -0.48584 | 77 ft | 0 kts | 270° |
| 2026-05-04 07:34 | 51.47361 | -0.48562 | 77 ft | 2 kts | 270° |
| 2026-05-04 07:34 | 51.47361 | -0.48538 | 77 ft | 2 kts | 270° |
| 2026-05-04 07:34 | 51.47361 | -0.48517 | 77 ft | 0 kts | 270° |
| 2026-05-04 07:34 | 51.47362 | -0.48499 | 77 ft | 2 kts | 244° |
| 2026-05-04 07:35 | 51.47371 | -0.48481 | 77 ft | 2 kts | 210° |
| 2026-05-04 07:35 | 51.47382 | -0.48474 | 77 ft | 0 kts | 184° |
| 2026-05-04 07:35 | 51.47389 | -0.48475 | 77 ft | 1 kts | 180° |
| 2026-05-04 07:35 | 51.47390 | -0.48475 | 77 ft | 0 kts | 180° |
| 2026-05-04 07:38 | 51.47386 | -0.48475 | 77 ft | 1 kts | 179° |
| 2026-05-04 07:38 | 51.47365 | -0.48474 | 77 ft | 3 kts | 180° |
| 2026-05-04 07:38 | 51.47331 | -0.48475 | 77 ft | 5 kts | 180° |
| 2026-05-04 07:39 | 51.47283 | -0.48475 | 77 ft | 7 kts | 180° |
| 2026-05-04 07:39 | 51.47221 | -0.48474 | 77 ft | 9 kts | 180° |
| 2026-05-04 07:39 | 51.47147 | -0.48473 | 77 ft | 11 kts | 179° |
| 2026-05-04 07:39 | 51.47063 | -0.48471 | 77 ft | 12 kts | 179° |
| 2026-05-04 07:40 | 51.46968 | -0.48469 | 77 ft | 14 kts | 180° |
| 2026-05-04 07:40 | 51.46867 | -0.48468 | 77 ft | 15 kts | 179° |
| 2026-05-04 07:40 | 51.46758 | -0.48468 | 77 ft | 16 kts | 181° |
| 2026-05-04 07:40 | 51.46672 | -0.48459 | 77 ft | 11 kts | 152° |
| 2026-05-04 07:41 | 51.46652 | -0.48339 | 77 ft | 12 kts | 89° |
| 2026-05-04 07:41 | 51.46652 | -0.48194 | 77 ft | 13 kts | 90° |
| 2026-05-04 07:41 | 51.46652 | -0.48037 | 77 ft | 14 kts | 90° |
| 2026-05-04 07:41 | 51.46653 | -0.47868 | 77 ft | 15 kts | 90° |
| 2026-05-04 07:42 | 51.46655 | -0.47691 | 77 ft | 16 kts | 89° |
| 2026-05-04 07:42 | 51.46658 | -0.47508 | 77 ft | 16 kts | 88° |
| 2026-05-04 07:42 | 51.46657 | -0.47320 | 77 ft | 17 kts | 92° |
| 2026-05-04 07:42 | 51.46655 | -0.47126 | 77 ft | 17 kts | 90° |
| 2026-05-04 07:43 | 51.46656 | -0.46927 | 77 ft | 18 kts | 90° |
| 2026-05-04 07:43 | 51.46656 | -0.46726 | 77 ft | 18 kts | 90° |
| 2026-05-04 07:43 | 51.46658 | -0.46521 | 77 ft | 18 kts | 90° |
| 2026-05-04 07:43 | 51.46658 | -0.46312 | 77 ft | 18 kts | 90° |
| 2026-05-04 07:44 | 51.46659 | -0.46102 | 77 ft | 19 kts | 90° |
| 2026-05-04 07:44 | 51.46661 | -0.45888 | 77 ft | 19 kts | 89° |
| 2026-05-04 07:44 | 51.46663 | -0.45673 | 77 ft | 19 kts | 91° |
| 2026-05-04 07:44 | 51.46660 | -0.45456 | 77 ft | 19 kts | 90° |
| 2026-05-04 07:45 | 51.46663 | -0.45239 | 77 ft | 19 kts | 90° |
| 2026-05-04 07:45 | 51.46663 | -0.45021 | 77 ft | 19 kts | 90° |
| 2026-05-04 07:45 | 51.46663 | -0.44799 | 77 ft | 19 kts | 90° |
| 2026-05-04 07:45 | 51.46664 | -0.44580 | 77 ft | 19 kts | 89° |
| 2026-05-04 07:46 | 51.46665 | -0.44357 | 77 ft | 19 kts | 90° |
| 2026-05-04 07:46 | 51.46665 | -0.44159 | 77 ft | 13 kts | 90° |
| 2026-05-04 07:46 | 51.46625 | -0.44060 | 77 ft | 12 kts | 168° |
| 2026-05-04 07:46 | 51.46536 | -0.44055 | 77 ft | 13 kts | 180° |
| 2026-05-04 07:47 | 51.46493 | -0.44082 | 77 ft | 6 kts | 259° |
| 2026-05-04 07:47 | 51.46492 | -0.44176 | 77 ft | 16 kts | 271° |
| 2026-05-04 07:47 | 51.46491 | -0.44817 | 77 ft | 98 kts | 270° |
| 2026-05-04 07:49 | 51.44846 | -0.57707 | 3953 ft | 210 kts | 239° |
| 2026-05-04 07:49 | 51.44064 | -0.59793 | 4360 ft | 231 kts | 238° |
| 2026-05-04 07:49 | 51.42951 | -0.61705 | 4946 ft | 244 kts | 214° |
| 2026-05-04 07:50 | 51.41346 | -0.62752 | 5474 ft | 260 kts | 188° |
| 2026-05-04 07:50 | 51.39508 | -0.62551 | 6045 ft | 273 kts | 161° |
| 2026-05-04 07:50 | 51.37861 | -0.61158 | 6903 ft | 274 kts | 146° |
| 2026-05-04 07:50 | 51.36223 | -0.59640 | 7778 ft | 276 kts | 154° |
| 2026-05-04 07:51 | 51.34478 | -0.58359 | 8615 ft | 278 kts | 159° |
| 2026-05-04 07:51 | 51.32686 | -0.57280 | 9450 ft | 279 kts | 162° |
| 2026-05-04 07:51 | 51.30867 | -0.56291 | 10278 ft | 279 kts | 164° |
| 2026-05-04 07:51 | 51.28926 | -0.55664 | 10726 ft | 291 kts | 178° |
| 2026-05-04 07:52 | 51.26849 | -0.55771 | 11043 ft | 308 kts | 187° |
| 2026-05-04 07:52 | 51.24685 | -0.56162 | 11372 ft | 323 kts | 189° |
| 2026-05-04 07:52 | 51.22454 | -0.56827 | 11949 ft | 329 kts | 193° |
| 2026-05-04 07:52 | 51.20222 | -0.57620 | 12639 ft | 331 kts | 193° |
| 2026-05-04 07:53 | 51.17992 | -0.58404 | 13275 ft | 334 kts | 193° |
| 2026-05-04 07:54 | 51.01874 | -0.58893 | 17418 ft | 359 kts | 148° |
| 2026-05-04 07:55 | 50.99799 | -0.56644 | 17946 ft | 362 kts | 148° |
| 2026-05-04 07:55 | 50.97722 | -0.54389 | 18469 ft | 365 kts | 148° |
| 2026-05-04 07:55 | 50.95598 | -0.52096 | 18996 ft | 368 kts | 148° |
| 2026-05-04 07:55 | 50.93498 | -0.49843 | 19531 ft | 370 kts | 148° |
| 2026-05-04 07:56 | 50.91353 | -0.47554 | 20047 ft | 373 kts | 148° |
| 2026-05-04 07:56 | 50.89190 | -0.45250 | 20559 ft | 375 kts | 148° |
| 2026-05-04 07:56 | 50.87050 | -0.42978 | 21044 ft | 378 kts | 148° |
| 2026-05-04 07:56 | 50.84844 | -0.40637 | 21529 ft | 380 kts | 149° |
| 2026-05-04 07:57 | 50.82655 | -0.38316 | 21998 ft | 383 kts | 149° |
| 2026-05-04 07:57 | 50.80431 | -0.35966 | 22465 ft | 385 kts | 149° |
| 2026-05-04 07:57 | 50.78235 | -0.33645 | 22892 ft | 388 kts | 149° |
| 2026-05-04 07:57 | 50.75972 | -0.31255 | 23335 ft | 390 kts | 149° |
| 2026-05-04 07:58 | 50.73729 | -0.28892 | 23750 ft | 393 kts | 149° |
| 2026-05-04 07:58 | 50.71447 | -0.26491 | 24165 ft | 395 kts | 149° |
| 2026-05-04 07:58 | 50.69156 | -0.24082 | 24577 ft | 397 kts | 150° |
| 2026-05-04 07:58 | 50.66853 | -0.21667 | 25010 ft | 398 kts | 150° |
| 2026-05-04 07:59 | 50.64552 | -0.19253 | 25418 ft | 400 kts | 150° |
| 2026-05-04 07:59 | 50.62240 | -0.16832 | 25832 ft | 401 kts | 150° |
| 2026-05-04 07:59 | 50.59942 | -0.14427 | 26245 ft | 402 kts | 150° |
| 2026-05-04 07:59 | 50.57607 | -0.11989 | 26659 ft | 403 kts | 150° |
| 2026-05-04 08:00 | 50.55257 | -0.09537 | 27034 ft | 404 kts | 150° |
| 2026-05-04 08:00 | 50.52946 | -0.07126 | 27393 ft | 406 kts | 151° |
| 2026-05-04 08:00 | 50.50579 | -0.04660 | 27770 ft | 407 kts | 151° |
| 2026-05-04 08:02 | 50.33950 | 0.12565 | 30114 ft | 414 kts | 151° |
| 2026-05-04 08:02 | 50.31530 | 0.15057 | 30409 ft | 415 kts | 151° |
| 2026-05-04 08:02 | 50.29150 | 0.17510 | 30726 ft | 415 kts | 151° |
| 2026-05-04 08:03 | 50.26756 | 0.19975 | 31085 ft | 414 kts | 151° |
| 2026-05-04 08:03 | 50.24347 | 0.22448 | 31405 ft | 413 kts | 151° |
| 2026-05-04 08:03 | 50.21941 | 0.24914 | 31684 ft | 413 kts | 151° |
| 2026-05-04 08:03 | 50.19548 | 0.27366 | 31930 ft | 414 kts | 151° |
| 2026-05-04 08:04 | 50.17149 | 0.29831 | 32176 ft | 415 kts | 151° |
| 2026-05-04 08:04 | 50.14757 | 0.32290 | 32422 ft | 415 kts | 151° |
| 2026-05-04 08:04 | 50.12345 | 0.34766 | 32684 ft | 415 kts | 150° |
| 2026-05-04 08:04 | 50.09957 | 0.37216 | 32938 ft | 415 kts | 150° |
| 2026-05-04 08:05 | 50.07552 | 0.39681 | 33191 ft | 415 kts | 150° |
| 2026-05-04 08:05 | 50.05129 | 0.42162 | 33428 ft | 416 kts | 150° |
| 2026-05-04 08:05 | 50.02751 | 0.44591 | 33664 ft | 416 kts | 150° |
| 2026-05-04 08:05 | 50.00315 | 0.47080 | 33890 ft | 416 kts | 150° |
| 2026-05-04 08:06 | 49.97902 | 0.49542 | 34116 ft | 416 kts | 150° |
| 2026-05-04 08:06 | 49.95494 | 0.51997 | 34365 ft | 416 kts | 150° |
| 2026-05-04 08:06 | 49.93110 | 0.54422 | 34643 ft | 414 kts | 150° |
| 2026-05-04 08:06 | 49.90693 | 0.56880 | 34876 ft | 413 kts | 150° |
| 2026-05-04 08:08 | 49.74553 | 0.75953 | 35742 ft | 423 kts | 144° |
| 2026-05-04 08:08 | 49.72272 | 0.78814 | 35837 ft | 424 kts | 144° |
| 2026-05-04 08:10 | 49.53840 | 1.01813 | 36777 ft | 432 kts | 144° |
| 2026-05-04 08:11 | 49.51497 | 1.04720 | 36894 ft | 433 kts | 144° |
| 2026-05-04 08:11 | 49.44446 | 1.13454 | 36987 ft | 435 kts | 144° |
| 2026-05-04 08:12 | 49.39732 | 1.19268 | 36989 ft | 436 kts | 144° |
| 2026-05-04 08:12 | 49.35026 | 1.25052 | 36991 ft | 435 kts | 144° |
| 2026-05-04 08:13 | 49.30318 | 1.30826 | 36988 ft | 434 kts | 144° |
| 2026-05-04 08:13 | 49.25615 | 1.36583 | 36989 ft | 434 kts | 144° |
| 2026-05-04 08:14 | 49.20924 | 1.42314 | 36988 ft | 433 kts | 144° |
| 2026-05-04 08:16 | 49.02147 | 1.65106 | 36983 ft | 434 kts | 146° |
| 2026-05-04 08:16 | 48.97442 | 1.70783 | 36986 ft | 433 kts | 146° |
| 2026-05-04 08:17 | 48.92741 | 1.76443 | 36985 ft | 432 kts | 146° |
| 2026-05-04 08:17 | 48.88014 | 1.82117 | 36986 ft | 432 kts | 146° |
| 2026-05-04 08:19 | 48.69209 | 2.04558 | 36997 ft | 431 kts | 146° |
| 2026-05-04 08:20 | 48.64521 | 2.10122 | 37000 ft | 430 kts | 146° |
| 2026-05-04 08:20 | 48.59824 | 2.15677 | 37002 ft | 430 kts | 146° |
| 2026-05-04 08:21 | 48.55289 | 2.21580 | 36992 ft | 434 kts | 140° |
| 2026-05-04 08:21 | 48.51040 | 2.28010 | 36989 ft | 434 kts | 139° |
| 2026-05-04 08:22 | 48.46807 | 2.34430 | 36986 ft | 433 kts | 139° |
| 2026-05-04 08:24 | 48.29568 | 2.59473 | 36983 ft | 429 kts | 144° |
| 2026-05-04 08:24 | 48.24982 | 2.65142 | 36989 ft | 429 kts | 145° |
| 2026-05-04 08:25 | 48.20384 | 2.70881 | 36980 ft | 429 kts | 143° |
| 2026-05-04 08:25 | 48.16187 | 2.77310 | 36980 ft | 434 kts | 136° |
| 2026-05-04 08:27 | 48.00547 | 3.04650 | 36983 ft | 434 kts | 136° |
| 2026-05-04 08:28 | 47.96618 | 3.11476 | 36996 ft | 434 kts | 136° |
| 2026-05-04 08:28 | 47.92701 | 3.18265 | 36990 ft | 433 kts | 136° |
| 2026-05-04 08:29 | 47.88782 | 3.25036 | 36991 ft | 433 kts | 136° |
| 2026-05-04 08:31 | 47.73047 | 3.52056 | 37004 ft | 433 kts | 136° |
| 2026-05-04 08:33 | 47.57262 | 3.78887 | 37012 ft | 433 kts | 136° |
| 2026-05-04 08:35 | 47.41428 | 4.05537 | 37000 ft | 433 kts | 136° |
| 2026-05-04 08:35 | 47.37437 | 4.12215 | 36996 ft | 433 kts | 136° |
| 2026-05-04 08:37 | 47.23481 | 4.35427 | 37006 ft | 434 kts | 136° |
| 2026-05-04 08:38 | 47.19488 | 4.42031 | 37009 ft | 434 kts | 136° |
| 2026-05-04 08:38 | 47.15468 | 4.48666 | 37012 ft | 435 kts | 136° |
| 2026-05-04 08:40 | 46.99368 | 4.75071 | 37027 ft | 436 kts | 137° |
| 2026-05-04 08:41 | 46.95353 | 4.81617 | 37028 ft | 436 kts | 137° |
| 2026-05-04 08:41 | 46.91303 | 4.88201 | 37031 ft | 436 kts | 137° |
| 2026-05-04 08:42 | 46.87232 | 4.94803 | 37031 ft | 436 kts | 137° |
| 2026-05-04 08:42 | 46.83193 | 5.01340 | 37032 ft | 436 kts | 137° |
| 2026-05-04 08:43 | 46.79136 | 5.07888 | 37032 ft | 437 kts | 137° |
| 2026-05-04 08:43 | 46.75047 | 5.14471 | 37031 ft | 437 kts | 137° |
| 2026-05-04 08:44 | 46.70974 | 5.21016 | 37032 ft | 438 kts | 137° |
| 2026-05-04 08:46 | 46.54589 | 5.47180 | 37025 ft | 439 kts | 137° |
| 2026-05-04 08:46 | 46.50472 | 5.53709 | 37028 ft | 439 kts | 137° |
| 2026-05-04 08:47 | 46.46367 | 5.60211 | 37022 ft | 440 kts | 137° |
| 2026-05-04 08:47 | 46.42234 | 5.66737 | 37024 ft | 439 kts | 137° |
| 2026-05-04 08:48 | 46.38107 | 5.73240 | 37021 ft | 440 kts | 137° |
| 2026-05-04 08:48 | 46.33982 | 5.79724 | 37020 ft | 439 kts | 137° |
| 2026-05-04 08:49 | 46.29840 | 5.86221 | 37026 ft | 440 kts | 137° |
| 2026-05-04 08:50 | 46.15291 | 6.08911 | 37046 ft | 442 kts | 137° |
| 2026-05-04 08:51 | 46.11146 | 6.15341 | 37050 ft | 441 kts | 137° |
| 2026-05-04 08:51 | 46.06968 | 6.21805 | 37048 ft | 441 kts | 137° |
| 2026-05-04 08:52 | 46.02802 | 6.28240 | 36883 ft | 439 kts | 137° |
| 2026-05-04 08:52 | 46.00734 | 6.31427 | 36219 ft | 442 kts | 137° |
| 2026-05-04 08:52 | 45.98614 | 6.34684 | 35410 ft | 447 kts | 137° |
| 2026-05-04 08:53 | 45.96511 | 6.37916 | 34675 ft | 449 kts | 137° |
| 2026-05-04 08:54 | 45.81666 | 6.60635 | 29323 ft | 436 kts | 136° |
| 2026-05-04 08:55 | 45.79614 | 6.63765 | 28805 ft | 430 kts | 136° |
| 2026-05-04 08:55 | 45.77580 | 6.66861 | 28302 ft | 423 kts | 137° |
| 2026-05-04 08:55 | 45.75565 | 6.69923 | 27787 ft | 418 kts | 137° |
| 2026-05-04 08:55 | 45.73613 | 6.72887 | 27287 ft | 413 kts | 137° |
| 2026-05-04 08:57 | 45.60354 | 6.92928 | 23868 ft | 384 kts | 137° |
| 2026-05-04 09:01 | 45.35585 | 7.29973 | 17259 ft | 361 kts | 137° |
| 2026-05-04 09:01 | 45.33859 | 7.32536 | 16784 ft | 360 kts | 137° |
| 2026-05-04 09:01 | 45.32143 | 7.35083 | 16318 ft | 358 kts | 136° |
| 2026-05-04 09:01 | 45.30434 | 7.37615 | 15864 ft | 356 kts | 136° |
| 2026-05-04 09:02 | 45.28743 | 7.40203 | 15393 ft | 356 kts | 134° |
| 2026-05-04 09:02 | 45.27100 | 7.42814 | 15024 ft | 351 kts | 134° |
| 2026-05-04 09:02 | 45.25520 | 7.45330 | 14796 ft | 341 kts | 134° |
| 2026-05-04 09:02 | 45.23971 | 7.47798 | 14649 ft | 329 kts | 134° |
| 2026-05-04 09:03 | 45.22356 | 7.50010 | 14471 ft | 314 kts | 151° |
| 2026-05-04 09:03 | 45.20368 | 7.50972 | 14183 ft | 300 kts | 179° |
| 2026-05-04 09:03 | 45.18317 | 7.50818 | 13811 ft | 297 kts | 186° |
| 2026-05-04 09:03 | 45.16254 | 7.50604 | 13435 ft | 295 kts | 184° |
| 2026-05-04 09:04 | 45.14215 | 7.50440 | 13087 ft | 293 kts | 184° |
| 2026-05-04 09:04 | 45.12193 | 7.50306 | 12875 ft | 286 kts | 183° |
| 2026-05-04 09:04 | 45.10254 | 7.50185 | 12738 ft | 277 kts | 183° |
| 2026-05-04 09:04 | 45.08333 | 7.50068 | 12498 ft | 272 kts | 182° |
| 2026-05-04 09:05 | 45.06454 | 7.49954 | 12164 ft | 271 kts | 182° |
| 2026-05-04 09:05 | 45.04576 | 7.49841 | 11855 ft | 270 kts | 182° |
| 2026-05-04 09:05 | 45.02730 | 7.49731 | 11607 ft | 266 kts | 182° |
| 2026-05-04 09:05 | 45.00875 | 7.49619 | 11204 ft | 268 kts | 181° |
| 2026-05-04 09:06 | 44.99020 | 7.49507 | 10935 ft | 265 kts | 181° |
| 2026-05-04 09:07 | 44.86302 | 7.48731 | 8667 ft | 256 kts | 180° |
| 2026-05-04 09:08 | 44.84522 | 7.48623 | 8376 ft | 253 kts | 180° |
| 2026-05-04 09:08 | 44.82814 | 7.48803 | 8261 ft | 240 kts | 157° |
| 2026-05-04 09:08 | 44.81549 | 7.50193 | 8090 ft | 233 kts | 121° |
| 2026-05-04 09:08 | 44.81102 | 7.52362 | 7758 ft | 235 kts | 92° |
| 2026-05-04 09:09 | 44.81090 | 7.54633 | 7493 ft | 234 kts | 91° |
| 2026-05-04 09:09 | 44.81053 | 7.56932 | 7225 ft | 233 kts | 92° |
| 2026-05-04 09:09 | 44.81056 | 7.59190 | 6907 ft | 234 kts | 79° |
| 2026-05-04 09:09 | 44.81744 | 7.61243 | 6595 ft | 236 kts | 48° |
| 2026-05-04 09:10 | 44.83120 | 7.62494 | 6287 ft | 239 kts | 17° |
| 2026-05-04 09:10 | 44.84734 | 7.62862 | 6086 ft | 236 kts | 5° |
| 2026-05-04 09:10 | 44.86379 | 7.62951 | 5853 ft | 235 kts | 2° |
| 2026-05-04 09:10 | 44.87993 | 7.62993 | 5615 ft | 234 kts | 2° |
| 2026-05-04 09:11 | 44.89621 | 7.63046 | 5365 ft | 233 kts | 2° |
| 2026-05-04 09:11 | 44.91233 | 7.63118 | 5129 ft | 232 kts | 3° |
| 2026-05-04 09:11 | 44.92855 | 7.63207 | 4900 ft | 232 kts | 3° |
| 2026-05-04 09:11 | 44.94448 | 7.63305 | 4677 ft | 231 kts | 3° |
| 2026-05-04 09:12 | 44.96055 | 7.63410 | 4456 ft | 231 kts | 3° |
| 2026-05-04 09:12 | 44.97665 | 7.63517 | 4382 ft | 230 kts | 4° |
| 2026-05-04 09:14 | 45.08001 | 7.64193 | 3106 ft | 205 kts | 3° |
| 2026-05-04 09:14 | 45.09409 | 7.64283 | 2828 ft | 203 kts | 3° |
| 2026-05-04 09:14 | 45.10810 | 7.64372 | 2560 ft | 197 kts | 3° |
| 2026-05-04 09:14 | 45.12124 | 7.64455 | 2327 ft | 183 kts | 3° |
| 2026-05-04 09:15 | 45.13343 | 7.64533 | 2100 ft | 168 kts | 3° |
| 2026-05-04 09:15 | 45.14465 | 7.64605 | 1870 ft | 154 kts | 3° |
| 2026-05-04 09:15 | 45.15492 | 7.64671 | 1663 ft | 140 kts | 2° |
| 2026-05-04 09:15 | 45.16431 | 7.64730 | 1480 ft | 133 kts | 4° |